PWSweather.com
Personal Weather Stations
Station Observations
BEZINA
Slovenske KonjiceSI

Slovenske KonjiceSI

Lat: 46.358, Lon: 15.433

Elevation: 340

Station Type: Oregon WMR 200

http://www.slometeo.net/bezina/

Latest ConditionsUpdated 9:45:00 PM GMT+01:01 Wednesday, Apr 24, 2019
Currently Today's Max Today's Min Today's Average
Temperature 59.8°F15.4°C 70.4°F21.3°C 49.5°F9.7°C 59.8°F15.4°C
Dew Point 51.5°F10.8°C 56.7°F13.7°C 48.4°F9.1°C 52.8°F11.6°C
Winds 3.3 mph S5.3 kmh S 9.3 mph -15.0 kmh - - 3.2 mph 5.1 kmh
Wind Gusts 7.0 mph11.3 kmh 21.0 mph33.8 kmh - -
Humidity 74% 97% 55% 79%
Pressure 29.97 in1014.9 mb 29.97 in1014.9 mb 29.88 in1011.9 mb -
Precipitation - 0.07 in1.8 mm - -
Hour Temp Dew Point Humidity Winds Wind Gusts Pressure Precip Precip Rate Daily Precip Total
09:45 PM 59.8°F15.4°C 51.5°F10.8°C 74% 3.3 mph S5.3 kmh S 7.0 mph11.3 kmh 29.97 in1014.9 mb 0.00 in0.0 mm 0.00 in0.0 mm 0.07 in1.8 mm
09:30 PM 60.0°F15.6°C 51.7°F10.9°C 74% 3.0 mph SW4.8 kmh SW 9.0 mph14.5 kmh 29.97 in1014.9 mb 0.00 in0.0 mm 0.00 in0.0 mm 0.07 in1.8 mm
09:15 PM 60.2°F15.7°C 51.9°F11.1°C 74% 2.4 mph SW3.9 kmh SW 6.0 mph9.7 kmh 29.97 in1014.9 mb 0.00 in0.0 mm 0.00 in0.0 mm 0.07 in1.8 mm
09:00 PM 60.8°F16.0°C 51.7°F10.9°C 72% 3.4 mph SSW5.5 kmh SSW 7.0 mph11.3 kmh 29.97 in1014.9 mb 0.00 in0.0 mm 0.00 in0.0 mm 0.07 in1.8 mm
08:45 PM 61.1°F16.2°C 52.0°F11.1°C 72% 4.2 mph SW6.8 kmh SW 10.0 mph16.1 kmh 29.96 in1014.6 mb 0.00 in0.0 mm 0.00 in0.0 mm 0.07 in1.8 mm
08:30 PM 61.2°F16.2°C 52.1°F11.2°C 72% 3.0 mph SW4.8 kmh SW 8.0 mph12.9 kmh 29.97 in1014.9 mb 0.00 in0.0 mm 0.00 in0.0 mm 0.07 in1.8 mm
08:15 PM 61.5°F16.4°C 52.4°F11.3°C 72% 3.0 mph SSW4.8 kmh SSW 8.0 mph12.9 kmh 29.97 in1014.9 mb 0.00 in0.0 mm 0.00 in0.0 mm 0.07 in1.8 mm
08:00 PM 62.1°F16.7°C 52.6°F11.4°C 71% 4.5 mph SSW7.2 kmh SSW 9.0 mph14.5 kmh 29.96 in1014.6 mb 0.00 in0.0 mm 0.00 in0.0 mm 0.07 in1.8 mm
07:45 PM 62.2°F16.8°C 52.7°F11.5°C 71% 3.0 mph SSW4.8 kmh SSW 7.0 mph11.3 kmh 29.96 in1014.6 mb 0.00 in0.0 mm 0.00 in0.0 mm 0.07 in1.8 mm
07:30 PM 62.6°F17.0°C 53.1°F11.7°C 71% 2.8 mph SW4.5 kmh SW 9.0 mph14.5 kmh 29.95 in1014.2 mb 0.00 in0.0 mm 0.00 in0.0 mm 0.07 in1.8 mm
07:15 PM 63.1°F17.3°C 52.8°F11.6°C 69% 4.8 mph SSW7.7 kmh SSW 14.0 mph22.5 kmh 29.95 in1014.2 mb 0.00 in0.0 mm 0.00 in0.0 mm 0.07 in1.8 mm
07:00 PM 63.6°F17.6°C 51.6°F10.9°C 65% 4.4 mph SSW7.1 kmh SSW 19.0 mph30.6 kmh 29.94 in1013.9 mb 0.00 in0.0 mm 0.00 in0.0 mm 0.07 in1.8 mm
06:45 PM 64.1°F17.8°C 52.9°F11.6°C 67% 4.0 mph SSW6.4 kmh SSW 8.0 mph12.9 kmh 29.94 in1013.9 mb 0.00 in0.0 mm 0.00 in0.0 mm 0.07 in1.8 mm
06:30 PM 64.7°F18.2°C 51.8°F11.0°C 63% 4.3 mph SW6.9 kmh SW 10.0 mph16.1 kmh 29.94 in1013.9 mb 0.00 in0.0 mm 0.00 in0.0 mm 0.07 in1.8 mm
06:15 PM 65.2°F18.4°C 51.4°F10.8°C 61% 4.7 mph S7.6 kmh S 14.0 mph22.5 kmh 29.94 in1013.9 mb 0.00 in0.0 mm 0.00 in0.0 mm 0.07 in1.8 mm
06:00 PM 66.1°F18.9°C 50.4°F10.2°C 57% 5.6 mph SW9.0 kmh SW 12.0 mph19.3 kmh 29.93 in1013.5 mb 0.00 in0.0 mm 0.00 in0.0 mm 0.07 in1.8 mm
05:45 PM 66.7°F19.3°C 51.5°F10.8°C 58% 6.9 mph SSW11.1 kmh SSW 14.0 mph22.5 kmh 29.94 in1013.9 mb 0.00 in0.0 mm 0.00 in0.0 mm 0.07 in1.8 mm
05:30 PM 67.3°F19.6°C 50.6°F10.3°C 55% 7.5 mph S12.1 kmh S 17.0 mph27.4 kmh 29.94 in1013.9 mb 0.00 in0.0 mm 0.00 in0.0 mm 0.07 in1.8 mm
05:15 PM 68.4°F20.2°C 52.1°F11.2°C 56% 5.1 mph SW8.2 kmh SW 14.0 mph22.5 kmh 29.94 in1013.9 mb 0.00 in0.0 mm 0.00 in0.0 mm 0.07 in1.8 mm
05:00 PM 68.9°F20.5°C 53.5°F11.9°C 58% 3.9 mph S6.3 kmh S 16.0 mph25.7 kmh 29.94 in1013.9 mb 0.00 in0.0 mm 0.00 in0.0 mm 0.07 in1.8 mm
04:45 PM 69.9°F21.1°C 54.0°F12.2°C 57% 4.0 mph SW6.4 kmh SW 11.0 mph17.7 kmh 29.94 in1013.9 mb 0.00 in0.0 mm 0.00 in0.0 mm 0.07 in1.8 mm
04:30 PM 70.2°F21.2°C 53.8°F12.1°C 56% 5.0 mph WSW8.0 kmh WSW 9.0 mph14.5 kmh 29.94 in1013.9 mb 0.00 in0.0 mm 0.00 in0.0 mm 0.07 in1.8 mm
04:15 PM 70.4°F21.3°C 54.4°F12.4°C 57% 4.3 mph SW6.9 kmh SW 13.0 mph20.9 kmh 29.93 in1013.5 mb 0.00 in0.0 mm 0.00 in0.0 mm 0.07 in1.8 mm
04:00 PM 70.4°F21.3°C 53.5°F11.9°C 55% 4.1 mph WSW6.6 kmh WSW 11.0 mph17.7 kmh 29.94 in1013.9 mb 0.00 in0.0 mm 0.00 in0.0 mm 0.07 in1.8 mm
03:45 PM 69.7°F20.9°C 56.5°F13.6°C 63% 3.9 mph S6.3 kmh S 9.0 mph14.5 kmh 29.94 in1013.9 mb 0.00 in0.0 mm 0.00 in0.0 mm 0.07 in1.8 mm
03:30 PM 67.4°F19.7°C 56.1°F13.4°C 67% 3.9 mph SW6.3 kmh SW 9.0 mph14.5 kmh 29.95 in1014.2 mb 0.00 in0.0 mm 0.00 in0.0 mm 0.07 in1.8 mm
03:15 PM 68.1°F20.1°C 55.5°F13.1°C 64% 3.8 mph SW6.1 kmh SW 10.0 mph16.1 kmh 29.95 in1014.2 mb 0.00 in0.0 mm 0.00 in0.0 mm 0.07 in1.8 mm
03:00 PM 67.0°F19.4°C 55.7°F13.2°C 67% 5.0 mph SW8.0 kmh SW 9.0 mph14.5 kmh 29.95 in1014.2 mb 0.00 in0.0 mm 0.00 in0.0 mm 0.07 in1.8 mm
02:45 PM 67.6°F19.8°C 55.4°F13.0°C 65% 5.2 mph SW8.4 kmh SW 11.0 mph17.7 kmh 29.95 in1014.2 mb 0.00 in0.0 mm 0.00 in0.0 mm 0.07 in1.8 mm
02:30 PM 68.0°F20.0°C 54.9°F12.7°C 63% 8.2 mph SW13.2 kmh SW 17.0 mph27.4 kmh 29.95 in1014.2 mb 0.00 in0.0 mm 0.00 in0.0 mm 0.07 in1.8 mm
02:15 PM 69.0°F20.6°C 56.3°F13.5°C 64% 7.1 mph SSW11.4 kmh SSW 17.0 mph27.4 kmh 29.95 in1014.2 mb 0.00 in0.0 mm 0.00 in0.0 mm 0.07 in1.8 mm
02:00 PM 69.2°F20.7°C 56.5°F13.6°C 64% 6.4 mph SW10.3 kmh SW 17.0 mph27.4 kmh 29.95 in1014.2 mb 0.00 in0.0 mm 0.00 in0.0 mm 0.07 in1.8 mm
01:45 PM 68.9°F20.5°C 54.9°F12.7°C 61% 6.8 mph SW10.9 kmh SW 15.0 mph24.1 kmh 29.95 in1014.2 mb 0.00 in0.0 mm 0.00 in0.0 mm 0.07 in1.8 mm
01:30 PM 68.3°F20.2°C 55.2°F12.9°C 63% 8.7 mph WSW14.0 kmh WSW 16.0 mph25.7 kmh 29.95 in1014.2 mb 0.00 in0.0 mm 0.00 in0.0 mm 0.07 in1.8 mm
01:15 PM 67.4°F19.7°C 54.8°F12.7°C 64% 6.9 mph WSW11.1 kmh WSW 19.0 mph30.6 kmh 29.95 in1014.2 mb 0.00 in0.0 mm 0.00 in0.0 mm 0.07 in1.8 mm
01:00 PM 65.8°F18.8°C 54.9°F12.7°C 68% 6.7 mph SW10.8 kmh SW 19.0 mph30.6 kmh 29.96 in1014.6 mb 0.00 in0.0 mm 0.00 in0.0 mm 0.07 in1.8 mm
12:45 PM 66.8°F19.3°C 55.1°F12.8°C 66% 5.8 mph WSW9.3 kmh WSW 17.0 mph27.4 kmh 29.96 in1014.6 mb 0.00 in0.0 mm 0.00 in0.0 mm 0.07 in1.8 mm
12:30 PM 67.6°F19.8°C 55.8°F13.2°C 66% 6.9 mph WSW11.1 kmh WSW 17.0 mph27.4 kmh 29.95 in1014.2 mb 0.00 in0.0 mm 0.00 in0.0 mm 0.07 in1.8 mm
12:15 PM 67.8°F19.9°C 56.0°F13.3°C 66% 6.8 mph SW10.9 kmh SW 17.0 mph27.4 kmh 29.95 in1014.2 mb 0.00 in0.0 mm 0.00 in0.0 mm 0.07 in1.8 mm
12:00 PM 67.6°F19.8°C 56.2°F13.4°C 67% 5.9 mph SSW9.5 kmh SSW 17.0 mph27.4 kmh 29.95 in1014.2 mb 0.00 in0.0 mm 0.00 in0.0 mm 0.07 in1.8 mm
11:45 AM 67.0°F19.4°C 55.7°F13.2°C 67% 5.4 mph WSW8.7 kmh WSW 10.0 mph16.1 kmh 29.95 in1014.2 mb 0.00 in0.0 mm 0.00 in0.0 mm 0.07 in1.8 mm
11:30 AM 66.7°F19.3°C 56.2°F13.4°C 69% 8.9 mph SSW14.3 kmh SSW 18.0 mph29.0 kmh 29.95 in1014.2 mb 0.00 in0.0 mm 0.00 in0.0 mm 0.07 in1.8 mm
11:15 AM 65.6°F18.7°C 55.9°F13.3°C 71% 9.3 mph S15.0 kmh S 15.0 mph24.1 kmh 29.95 in1014.2 mb 0.00 in0.0 mm 0.00 in0.0 mm 0.07 in1.8 mm
11:00 AM 65.3°F18.5°C 56.4°F13.6°C 73% 8.1 mph SSW13.0 kmh SSW 21.0 mph33.8 kmh 29.95 in1014.2 mb 0.00 in0.0 mm 0.00 in0.0 mm 0.07 in1.8 mm
10:45 AM 64.7°F18.2°C 56.6°F13.7°C 75% 5.9 mph SW9.5 kmh SW 15.0 mph24.1 kmh 29.96 in1014.6 mb 0.00 in0.0 mm 0.00 in0.0 mm 0.07 in1.8 mm
10:30 AM 63.8°F17.7°C 56.4°F13.6°C 77% 4.5 mph WSW7.2 kmh WSW 11.0 mph17.7 kmh 29.96 in1014.6 mb 0.00 in0.0 mm 0.00 in0.0 mm 0.07 in1.8 mm
10:15 AM 62.7°F17.1°C 56.4°F13.6°C 80% 4.0 mph SW6.4 kmh SW 12.0 mph19.3 kmh 29.96 in1014.6 mb 0.00 in0.0 mm 0.00 in0.0 mm 0.07 in1.8 mm
10:00 AM 62.2°F16.8°C 55.3°F12.9°C 78% 4.0 mph SW6.4 kmh SW 9.0 mph14.5 kmh 29.96 in1014.6 mb 0.00 in0.0 mm 0.00 in0.0 mm 0.07 in1.8 mm
09:45 AM 62.2°F16.8°C 55.3°F12.9°C 78% 4.0 mph SW6.4 kmh SW 9.0 mph14.5 kmh 29.96 in1014.6 mb 0.00 in0.0 mm 0.00 in0.0 mm 0.07 in1.8 mm
09:30 AM 61.9°F16.6°C 55.7°F13.2°C 80% 3.9 mph SW6.3 kmh SW 9.0 mph14.5 kmh 29.95 in1014.2 mb 0.00 in0.0 mm 0.00 in0.0 mm 0.07 in1.8 mm
09:15 AM 61.2°F16.2°C 56.3°F13.5°C 84% 5.0 mph SW8.0 kmh SW 8.0 mph12.9 kmh 29.95 in1014.2 mb 0.00 in0.0 mm 0.00 in0.0 mm 0.07 in1.8 mm
09:00 AM 60.7°F15.9°C 56.5°F13.6°C 86% 5.1 mph S8.2 kmh S 12.0 mph19.3 kmh 29.95 in1014.2 mb 0.00 in0.0 mm 0.00 in0.0 mm 0.07 in1.8 mm
08:45 AM 59.3°F15.2°C 56.7°F13.7°C 91% 4.3 mph S6.9 kmh S 10.0 mph16.1 kmh 29.95 in1014.2 mb 0.00 in0.0 mm 0.00 in0.0 mm 0.07 in1.8 mm
08:30 AM 57.0°F13.9°C 56.2°F13.4°C 97% 1.4 mph S2.3 kmh S 10.0 mph16.1 kmh 29.95 in1014.2 mb 0.00 in0.0 mm 0.00 in0.0 mm 0.07 in1.8 mm
08:15 AM 55.7°F13.2°C 54.9°F12.7°C 97% 1.0 mph SE1.6 kmh SE 4.0 mph6.4 kmh 29.94 in1013.9 mb 0.00 in0.0 mm 0.00 in0.0 mm 0.07 in1.8 mm
08:00 AM 54.0°F12.2°C 53.2°F11.8°C 97% Calm Calm 3.0 mph4.8 kmh 29.95 in1014.2 mb 0.00 in0.0 mm 0.00 in0.0 mm 0.07 in1.8 mm
07:45 AM 53.4°F11.9°C 52.6°F11.4°C 97% 0.8 mph E1.3 kmh E 2.0 mph3.2 kmh 29.95 in1014.2 mb 0.00 in0.0 mm 0.00 in0.0 mm 0.07 in1.8 mm
07:30 AM 53.1°F11.7°C 52.3°F11.3°C 97% Calm Calm 2.0 mph3.2 kmh 29.94 in1013.9 mb 0.00 in0.0 mm 0.00 in0.0 mm 0.07 in1.8 mm
07:15 AM 52.8°F11.6°C 52.0°F11.1°C 97% Calm Calm 2.0 mph3.2 kmh 29.94 in1013.9 mb 0.00 in0.0 mm 0.00 in0.0 mm 0.07 in1.8 mm
07:00 AM 52.4°F11.3°C 51.6°F10.9°C 97% Calm Calm 2.0 mph3.2 kmh 29.94 in1013.9 mb 0.00 in0.0 mm 0.00 in0.0 mm 0.07 in1.8 mm
06:45 AM 52.0°F11.1°C 51.2°F10.7°C 97% Calm Calm 2.0 mph3.2 kmh 29.94 in1013.9 mb 0.00 in0.0 mm 0.00 in0.0 mm 0.07 in1.8 mm
06:30 AM 51.7°F10.9°C 50.9°F10.5°C 97% Calm Calm -- 29.93 in1013.5 mb 0.00 in0.0 mm 0.00 in0.0 mm 0.07 in1.8 mm
06:15 AM 51.3°F10.7°C 50.5°F10.3°C 97% Calm Calm 1.0 mph1.6 kmh 29.93 in1013.5 mb 0.00 in0.0 mm 0.00 in0.0 mm 0.07 in1.8 mm
06:00 AM 50.6°F10.3°C 49.8°F9.9°C 97% Calm Calm 2.0 mph3.2 kmh 29.93 in1013.5 mb 0.00 in0.0 mm 0.00 in0.0 mm 0.07 in1.8 mm
05:45 AM 49.8°F9.9°C 49.0°F9.4°C 97% Calm Calm -- 29.92 in1013.2 mb 0.00 in0.0 mm 0.00 in0.0 mm 0.07 in1.8 mm
05:30 AM 49.5°F9.7°C 48.4°F9.1°C 96% Calm Calm 1.0 mph1.6 kmh 29.92 in1013.2 mb 0.00 in0.0 mm 0.00 in0.0 mm 0.07 in1.8 mm
05:15 AM 49.6°F9.8°C 48.5°F9.2°C 96% Calm Calm 1.0 mph1.6 kmh 29.91 in1012.9 mb 0.00 in0.0 mm 0.00 in0.0 mm 0.07 in1.8 mm
05:00 AM 49.8°F9.9°C 48.7°F9.3°C 96% 0.7 mph E1.1 kmh E 1.0 mph1.6 kmh 29.90 in1012.5 mb 0.01 in0.3 mm 0.00 in0.0 mm 0.07 in1.8 mm
04:45 AM 49.8°F9.9°C 48.7°F9.3°C 96% Calm Calm 1.0 mph1.6 kmh 29.90 in1012.5 mb 0.01 in0.3 mm 0.00 in0.0 mm 0.07 in1.8 mm
04:30 AM 50.2°F10.1°C 49.1°F9.5°C 96% Calm Calm 2.0 mph3.2 kmh 29.89 in1012.2 mb 0.02 in0.5 mm 0.00 in0.0 mm 0.07 in1.8 mm
04:15 AM 50.4°F10.2°C 49.3°F9.6°C 96% Calm Calm 3.0 mph4.8 kmh 29.89 in1012.2 mb 0.02 in0.5 mm 0.04 in1.0 mm 0.07 in1.8 mm
04:00 AM 50.6°F10.3°C 49.5°F9.7°C 96% 0.4 mph 0.6 kmh -- 29.89 in1012.2 mb 0.01 in0.3 mm 0.00 in0.0 mm 0.06 in1.5 mm
03:45 AM 50.5°F10.3°C 49.4°F9.7°C 96% 0.1 mph E0.2 kmh E 2.0 mph3.2 kmh 29.89 in1012.2 mb 0.01 in0.3 mm 0.00 in0.0 mm 0.06 in1.5 mm
03:30 AM 50.7°F10.4°C 49.6°F9.8°C 96% Calm Calm -- 29.89 in1012.2 mb 0.01 in0.3 mm 0.00 in0.0 mm 0.06 in1.5 mm
03:15 AM 51.0°F10.6°C 49.9°F9.9°C 96% Calm Calm -- 29.89 in1012.2 mb 0.02 in0.5 mm 0.00 in0.0 mm 0.06 in1.5 mm
03:00 AM 51.3°F10.7°C 50.2°F10.1°C 96% Calm Calm -- 29.89 in1012.2 mb 0.02 in0.5 mm 0.00 in0.0 mm 0.06 in1.5 mm
02:45 AM 51.3°F10.7°C 50.2°F10.1°C 96% 0.8 mph E1.3 kmh E 2.0 mph3.2 kmh 29.89 in1012.2 mb 0.02 in0.5 mm 0.00 in0.0 mm 0.06 in1.5 mm
02:30 AM 51.3°F10.7°C 50.2°F10.1°C 96% Calm Calm 2.0 mph3.2 kmh 29.88 in1011.9 mb 0.02 in0.5 mm 0.08 in2.0 mm 0.05 in1.3 mm
02:15 AM 51.3°F10.7°C 50.2°F10.1°C 96% Calm Calm -- 29.88 in1011.9 mb 0.00 in0.0 mm 0.00 in0.0 mm 0.03 in0.8 mm
02:00 AM 51.3°F10.7°C 50.2°F10.1°C 96% Calm Calm -- 29.88 in1011.9 mb 0.00 in0.0 mm 0.00 in0.0 mm 0.03 in0.8 mm
01:45 AM 51.4°F10.8°C 50.3°F10.2°C 96% 0.8 mph SSE1.3 kmh SSE 2.0 mph3.2 kmh 29.88 in1011.9 mb 0.00 in0.0 mm 0.00 in0.0 mm 0.03 in0.8 mm
01:30 AM 51.4°F10.8°C 50.3°F10.2°C 96% 0.3 mph SSE0.5 kmh SSE 2.0 mph3.2 kmh 29.88 in1011.9 mb 0.01 in0.3 mm 0.00 in0.0 mm 0.03 in0.8 mm
01:15 AM 51.4°F10.8°C 50.3°F10.2°C 96% Calm Calm 1.0 mph1.6 kmh 29.88 in1011.9 mb 0.03 in0.8 mm 0.00 in0.0 mm 0.03 in0.8 mm
01:00 AM 51.4°F10.8°C 50.3°F10.2°C 96% Calm Calm 1.0 mph1.6 kmh 29.89 in1012.2 mb 0.03 in0.8 mm 0.00 in0.0 mm 0.03 in0.8 mm
12:45 AM 51.5°F10.8°C 50.4°F10.2°C 96% Calm Calm -- 29.89 in1012.2 mb 0.03 in0.8 mm 0.04 in1.0 mm 0.03 in0.8 mm
12:30 AM 51.5°F10.8°C 50.4°F10.2°C 96% Calm Calm -- 29.89 in1012.2 mb 0.02 in0.5 mm 0.08 in2.0 mm 0.02 in0.5 mm
12:15 AM 51.5°F10.8°C 50.4°F10.2°C 96% Calm Calm -- 29.89 in1012.2 mb 0.00 in0.0 mm 0.00 in0.0 mm 0.00 in0.0 mm
12:00 AM 51.5°F10.8°C 50.4°F10.2°C 96% Calm Calm -- 29.89 in1012.2 mb 0.00 in0.0 mm 0.00 in0.0 mm 0.00 in0.0 mm